Terminal Aerodrome Forecast
Issued by NWS Kansas City/Pleasant Hill, MO

Home | Current Version | Previous Version | Text Only | Print | Product List | Glossary On
Versions: 1 2 3 4 5 6 7 8 9 10 11 12 13 14 15 16 17 18 19 20
000
FTUS43 KEAX 251700
TAFMCI
TAF
KMCI 251720Z 2518/2618 02011KT P6SM OVC007
     FM252100 02014KT P6SM VCSH OVC050
     FM260000 01011KT 5SM -SHRA BR OVC035
     FM260500 36008KT P6SM OVC050
     FM260900 36007KT P6SM SCT050=

USA.gov is the U.S. government's official web portal to all federal, state and local government web resources and services.